Etusivu
METAR-TAF:

METAR-TAF

Lentoasemat :

Truth or Consequences Municipal Airport

Truth or Consequences, New Mexico, Yhdysvallat

Leveyspiiri: 33-14-12N, Pituuspiiri: 107-16-05W, korkeus merenpinnasta: 1478 m

Tämänhetkinen sää

Tämä raportti tehtiin 36 minuuttia sitten, kello 11.53 UTC
Tuuli 8 kn lännestä/luoteesta
Lämpötila 19°C
Kosteus 49%
Ilmanpaine 1024 hPa
Näkyvyys: 16.1 km
selkeää

METAR: KTCS 121153Z AUTO 30008KT 10SM CLR 19/08 A3023 RMK AO2 SLP145 T01940078 10250 20194 53006

Aika: 06:29 (12:29 UTC)

Sääennuste

Tämä raportti tehtiin 1 tunti ja 4 minuuttia sitten, kello 11.25 UTC
Ennuste voimassa 12. päivästä klo 12 UTC - 13. päivään klo 12 UTC
Tuuli 10 kn lännestä/luoteesta
Näkyvyys: 10 km
selkeää
From 12. päivästä klo 1600 UTC
Tuuli 12 kn etelästä puuskistuen 20 kn:hen
Näkyvyys: 10 km
Muutamia pilviä 10000 ft:n korkeudessa
Hajanaisia pilviä 25000 ft:n korkeudessa

TAF: KTCS 121125Z 1212/1312 29010KT P6SM SKC FM121600 17012G20KT P6SM FEW100 SCT250

Säähavainnot ja -ennusteet yli 4000 lentoasemalta (METAR- ja TAF-raportit).

Käytössä olevat sääasemat on merkitty karttaan keltaisilla ja punaisilla pisteillä.

Aseta hiiri pisteen päälle nähdäksesi sääaseman nimen.

Klikkaa sitten nähdäksesi säähavainnot ja -ennusteet.

Kartan vaihtaminen: klikkaa mustalla rastilla varustettuja vihreitä pisteitä, niin voit zoomata sisään; viivalla varustettua vihreää pistettä, niin voit zoomata ulos tai vihreitä nuolia, niin pääset viereisille kartoille.


METAR-TAF: